Flight Track Log - Related Links

Times and Time Zones

All times are in EDT time to prevent confusion due to time zone crossing. See the AWI3698 flight status page for this flight to view local times or setup timezone preferences in your user account.

Time Position Orientation Groundspeed Altitude Reporting Facility
EDT Latitude Longitude Course Direction KTS MPH feet Rate Location/Type
Mon 10:08:15 AM 39.8833 -75.1833 303° West 154 177 1,900  Level Philadelphia TRACON
Mon 10:10:00 AM 40.1484 -75.4984 323° Northwest  Level FlightAware Approximate
Mon 10:10:15 AM 39.9833 -75.2167 346° North 284 327 5,200  Level Philadelphia TRACON
Mon 10:11:00 AM 40.2420 -75.5879 311° West  Level FlightAware Approximate
Mon 10:11:15 AM 40.0333 -75.2833 314° West 283 326 7,400  Level Philadelphia TRACON
Mon 10:12:00 AM 40.3207 -75.7068 308° West  Level FlightAware Approximate
Mon 10:12:15 AM 40.0833 -75.3667 308° West 300 345 9,300  Level Philadelphia TRACON
Mon 10:13:00 AM 40.3970 -75.8273 303° West  Level FlightAware Approximate
Mon 10:13:05 AM 40.1317 -75.4350 313° West 305 351 11,500  Level New York Center
Mon 10:15:06 AM 40.2600 -75.6150 313° West 330 380 14,000 1,364 Climbing New York Center
Mon 10:17:07 AM 40.3931 -75.8206 310° West 385 443 17,000 1,055 Climbing New York Center
Mon 10:18:08 AM 40.4483 -75.9419 301° West 399 459 17,200 763 Climbing New York Center
Mon 10:19:05 AM 40.4725 -76.0994 281° West 395 455 18,500 966 Climbing New York Center
Mon 10:20:06 AM 40.4972 -76.2458 283° West 410 472 19,100 923 Climbing New York Center
Mon 10:22:07 AM 40.5433 -76.5447 282° West 416 479 21,300 1,230 Climbing New York Center
Mon 10:24:05 AM 40.6447 -76.8103 297° West 398 458 24,000 1,227 Climbing New York Center
Mon 10:25:08 AM 40.7206 -76.9183 313° West 409 471 25,000 836 Climbing New York Center
Mon 10:26:07 AM 40.8167 -76.9928 330° Northwest 403 464 25,700 335 Climbing New York Center
Mon 10:28:07 AM 41.0167 -77.1514 329° Northwest 408 470 26,000 61 Climbing New York Center
Mon 10:31:01 AM 41.2958 -77.3714 329° Northwest 423 487 26,000  Level Cleveland Center
Mon 10:32:02 AM 41.3961 -77.4522 329° Northwest 417 480 26,000  Level Cleveland Center
Mon 10:33:00 AM 41.4919 -77.5281 329° Northwest 417 480 26,000  Level Cleveland Center
Mon 10:34:01 AM 41.5942 -77.6122 328° Northwest 412 474 26,000  Level Cleveland Center
Mon 10:36:02 AM 41.7753 -77.7597 329° Northwest 390 449 26,000  Level Cleveland Center
Mon 10:37:03 AM 41.8622 -77.8283 330° Northwest 378 435 26,000 -302 Level Cleveland Center
Mon 10:39:01 AM 42.0325 -77.9692 328° Northwest 378 435 25,100 -905 Descending Cleveland Center
Mon 10:40:02 AM 42.1194 -78.0414 328° Northwest 378 435 23,300 -2,008 Descending Cleveland Center
Mon 10:42:00 AM 42.2867 -78.1200 324° Northwest  Level FlightAware Approximate
Mon 10:43:18 AM 42.4000 -78.2667 324° Northwest 344 396 16,500  Level Buffalo TRACON
Mon 10:44:01 AM 42.4483 -78.3153 323° Northwest 350 403 15,500 -1,745 Descending Cleveland Center
Mon 10:46:03 AM 42.6008 -78.4422 329° Northwest 333 383 11,700 -1,911 Descending Cleveland Center
Mon 10:47:00 AM 42.6750 -78.5019 329° Northwest 322 371 9,800 -1,881 Descending Cleveland Center
Mon 10:48:01 AM 42.7628 -78.5217 351° North 299 344 8,000 -1,388 Descending Cleveland Center
Mon 10:49:01 AM 42.8336 -78.5222 360° North 268 308 7,000 -1,319 Descending Cleveland Center
Mon 10:51:12 AM 42.9833 -78.5167 North 232 267 3,800 -1,349 Descending Buffalo TRACON
Mon 10:52:30 AM 43.0167 -78.6167 295° West 224 258 2,300 -781 Descending Buffalo TRACON
Mon 10:54:24 AM 42.9667 -78.7000 231° Southwest 137 158 1,300 -526 Descending Buffalo TRACON

Login

Don't have an account? Register now (free) for customized features, flight alerts, and more!